createdAt,value
2019-02-24T00:01:30.053Z,2.37
2019-02-24T00:03:59.459Z,2.38
2019-02-24T00:06:28.920Z,2.39
2019-02-24T00:08:58.483Z,2.40
2019-02-24T00:11:28.172Z,2.40
2019-02-24T00:13:57.598Z,2.38
2019-02-24T00:16:27.141Z,2.38
2019-02-24T00:18:56.547Z,2.37
2019-02-24T00:21:26.026Z,2.35
2019-02-24T00:23:55.610Z,2.33
2019-02-24T00:26:25.068Z,2.31
2019-02-24T00:28:54.538Z,2.31
2019-02-24T00:31:23.966Z,2.32
2019-02-24T00:33:53.417Z,2.32
2019-02-24T00:36:23.919Z,2.31
2019-02-24T00:38:53.359Z,2.31
2019-02-24T00:41:22.807Z,2.28
2019-02-24T00:43:52.287Z,2.27
2019-02-24T00:46:21.826Z,2.27
2019-02-24T00:48:51.292Z,2.27
2019-02-24T00:51:20.938Z,2.27
2019-02-24T00:53:50.404Z,2.25
2019-02-24T00:56:19.922Z,2.25
2019-02-24T00:58:49.382Z,2.25
2019-02-24T01:01:19.108Z,2.23
2019-02-24T01:03:48.576Z,2.22
2019-02-24T01:06:18.110Z,2.21
2019-02-24T01:08:47.586Z,2.21
2019-02-24T01:11:17.058Z,2.20
2019-02-24T01:13:46.524Z,2.23
2019-02-24T01:16:16.454Z,2.26
2019-02-24T01:18:45.912Z,2.27
2019-02-24T01:21:15.310Z,2.25
2019-02-24T01:23:44.774Z,2.26
2019-02-24T01:26:14.235Z,2.25
2019-02-24T01:28:43.694Z,2.21
2019-02-24T01:31:13.221Z,2.19
2019-02-24T01:33:42.632Z,2.16
2019-02-24T01:36:12.108Z,2.13
2019-02-24T01:38:41.639Z,2.11
2019-02-24T01:41:11.155Z,2.11
2019-02-24T01:43:40.691Z,2.11
2019-02-24T01:46:10.142Z,2.12
2019-02-24T01:48:39.653Z,2.09
2019-02-24T01:51:09.446Z,2.07
2019-02-24T01:53:38.918Z,2.06
2019-02-24T01:56:08.473Z,2.08
2019-02-24T01:58:37.934Z,2.10
2019-02-24T02:01:07.620Z,2.11
2019-02-24T02:03:37.150Z,2.07
2019-02-24T02:06:06.563Z,2.07
2019-02-24T02:08:36.011Z,2.08
2019-02-24T02:11:05.489Z,2.06
2019-02-24T02:13:34.953Z,2.06
2019-02-24T02:16:04.378Z,2.06
2019-02-24T02:18:33.838Z,2.05
2019-02-24T02:21:03.389Z,2.04
2019-02-24T02:23:32.890Z,2.06
2019-02-24T02:26:02.373Z,2.04
2019-02-24T02:28:31.826Z,2.05
2019-02-24T02:31:01.279Z,2.04
2019-02-24T02:33:30.718Z,2.04
2019-02-24T02:36:00.290Z,2.06
2019-02-24T02:38:29.728Z,2.07
2019-02-24T02:40:59.501Z,2.07
2019-02-24T02:43:28.971Z,2.06
2019-02-24T02:45:58.463Z,2.04
2019-02-24T02:48:27.949Z,2.03
2019-02-24T02:50:57.389Z,2.00
2019-02-24T02:53:26.775Z,2.00
2019-02-24T02:55:56.227Z,2.00
2019-02-24T02:58:25.790Z,1.99
2019-02-24T03:00:55.238Z,1.99
2019-02-24T03:03:25.798Z,1.97
2019-02-24T03:05:56.854Z,1.94
2019-02-24T03:08:27.946Z,1.96
2019-02-24T03:10:57.379Z,1.95
2019-02-24T03:13:27.209Z,1.93
2019-02-24T03:15:56.614Z,1.92
2019-02-24T03:18:26.053Z,1.91
2019-02-24T03:20:55.537Z,1.91
2019-02-24T03:23:25.071Z,1.90
2019-02-24T03:25:54.496Z,1.93
2019-02-24T03:28:23.943Z,1.90
2019-02-24T03:30:53.366Z,1.91
2019-02-24T03:33:22.895Z,1.91
2019-02-24T03:35:52.338Z,1.91
2019-02-24T03:38:21.813Z,1.89
2019-02-24T03:40:51.269Z,1.89
2019-02-24T03:43:20.681Z,1.89
2019-02-24T03:45:50.129Z,1.86
2019-02-24T03:48:19.603Z,1.85
2019-02-24T03:50:49.081Z,1.85
2019-02-24T03:53:18.602Z,1.86
2019-02-24T03:55:48.139Z,1.87
2019-02-24T03:58:17.688Z,1.86
2019-02-24T04:00:47.160Z,1.87
2019-02-24T04:03:16.580Z,1.86
2019-02-24T04:05:46.032Z,1.85
2019-02-24T04:08:15.461Z,1.85
2019-02-24T04:10:44.935Z,1.84
2019-02-24T04:13:14.353Z,1.85
2019-02-24T04:15:43.802Z,1.85
2019-02-24T04:18:13.317Z,1.84
2019-02-24T04:20:42.775Z,1.76
2019-02-24T04:23:12.220Z,1.73
2019-02-24T04:25:41.621Z,1.75
2019-02-24T04:28:11.087Z,1.76
2019-02-24T04:30:40.505Z,1.81
2019-02-24T04:33:09.994Z,1.82
2019-02-24T04:35:39.396Z,1.83
2019-02-24T04:38:09.822Z,1.83
2019-02-24T04:40:39.270Z,1.84
2019-02-24T04:43:08.696Z,1.84
2019-02-24T04:45:38.150Z,1.86
2019-02-24T04:48:07.703Z,1.81
2019-02-24T04:50:37.165Z,1.77
2019-02-24T04:53:06.640Z,1.77
2019-02-24T04:55:36.083Z,1.73
2019-02-24T04:58:05.712Z,1.65
2019-02-24T05:00:35.127Z,1.56
2019-02-24T05:03:04.590Z,1.50
2019-02-24T05:05:34.060Z,1.40
2019-02-24T05:08:04.361Z,1.28
2019-02-24T05:10:33.840Z,1.26
2019-02-24T05:13:03.322Z,1.25
2019-02-24T05:15:32.779Z,1.22
2019-02-24T05:18:02.459Z,1.23
2019-02-24T05:20:31.915Z,1.23
2019-02-24T05:23:01.332Z,1.23
2019-02-24T05:25:30.788Z,1.21
2019-02-24T05:28:01.172Z,0.93
2019-02-24T05:30:30.636Z,0.93
2019-02-24T05:33:00.085Z,0.96
2019-02-24T05:35:29.487Z,0.97
2019-02-24T05:37:58.944Z,0.97
2019-02-24T05:40:28.347Z,0.98
2019-02-24T05:42:57.793Z,1.00
2019-02-24T05:45:27.195Z,1.03
2019-02-24T05:47:56.746Z,1.04
2019-02-24T05:50:26.368Z,1.04
2019-02-24T05:52:55.778Z,1.05
2019-02-24T05:55:25.186Z,1.06
2019-02-24T05:57:54.636Z,1.10
2019-02-24T06:00:24.041Z,1.10
2019-02-24T06:02:53.789Z,1.13
2019-02-24T06:05:23.201Z,1.15
2019-02-24T06:07:52.691Z,1.17
2019-02-24T06:10:22.123Z,1.18
2019-02-24T06:12:51.527Z,1.17
2019-02-24T06:15:20.980Z,1.20
2019-02-24T06:17:50.405Z,1.21
2019-02-24T06:20:19.865Z,1.20
2019-02-24T06:22:49.289Z,1.22
2019-02-24T06:25:18.749Z,1.23
2019-02-24T06:27:48.281Z,1.24
2019-02-24T06:30:17.745Z,1.26
2019-02-24T06:32:47.155Z,1.31
2019-02-24T06:35:17.589Z,1.33
2019-02-24T06:37:46.995Z,1.34
2019-02-24T06:40:16.442Z,1.36
2019-02-24T06:42:45.896Z,1.39
2019-02-24T06:45:15.359Z,1.42
2019-02-24T06:47:44.796Z,1.44
2019-02-24T06:50:14.347Z,1.47
2019-02-24T06:52:43.776Z,1.53
2019-02-24T06:55:13.218Z,1.60
2019-02-24T06:57:42.706Z,1.68
2019-02-24T07:00:14.413Z,1.75
2019-02-24T07:02:43.715Z,1.82
2019-02-24T07:05:13.167Z,1.96
2019-02-24T07:07:42.618Z,1.96
2019-02-24T07:10:12.057Z,2.03
2019-02-24T07:12:41.458Z,2.09
2019-02-24T07:15:11.033Z,2.16
2019-02-24T07:17:40.453Z,2.24
2019-02-24T07:20:11.776Z,2.31
2019-02-24T07:22:41.234Z,2.39
2019-02-24T07:25:10.646Z,2.45
2019-02-24T07:27:40.113Z,2.52
2019-02-24T07:30:10.262Z,2.61
2019-02-24T07:32:39.809Z,2.70
2019-02-24T07:35:09.217Z,2.81
2019-02-24T07:37:38.761Z,2.91
2019-02-24T07:40:09.223Z,2.99
2019-02-24T07:42:38.703Z,3.08
2019-02-24T07:45:09.171Z,3.18
2019-02-24T07:47:38.615Z,3.29
2019-02-24T07:50:09.371Z,3.39
2019-02-24T07:52:38.839Z,3.49
2019-02-24T07:55:08.346Z,3.53
2019-02-24T07:57:37.824Z,3.61
2019-02-24T08:00:10.481Z,3.72
2019-02-24T08:02:40.064Z,3.83
2019-02-24T08:05:09.539Z,3.97
2019-02-24T08:07:38.994Z,4.10
2019-02-24T08:10:08.663Z,4.21
2019-02-24T08:12:38.203Z,4.32
2019-02-24T08:15:09.053Z,4.43
2019-02-24T08:17:38.612Z,4.54
2019-02-24T08:20:09.582Z,4.66
2019-02-24T08:22:39.068Z,4.76
2019-02-24T08:25:08.759Z,4.86
2019-02-24T08:27:39.630Z,4.91
2019-02-24T08:30:11.499Z,5.06
2019-02-24T08:32:40.983Z,5.06
2019-02-24T08:35:10.669Z,5.23
2019-02-24T08:37:40.133Z,5.35
2019-02-24T08:40:09.902Z,5.46
2019-02-24T08:42:39.372Z,5.55
2019-02-24T08:45:10.371Z,5.64
2019-02-24T08:47:40.078Z,5.74
2019-02-24T08:50:10.814Z,5.82
2019-02-24T08:52:40.352Z,5.94
2019-02-24T08:55:10.829Z,6.00
2019-02-24T08:57:40.581Z,6.12
2019-02-24T09:00:15.299Z,6.21
2019-02-24T09:02:44.706Z,6.23
2019-02-24T09:05:14.188Z,6.32
2019-02-24T09:07:43.661Z,6.48
2019-02-24T09:10:13.083Z,6.48
2019-02-24T09:12:42.537Z,6.49
2019-02-24T09:15:13.352Z,6.60
2019-02-24T09:17:42.828Z,6.64
2019-02-24T09:20:13.132Z,6.76
2019-02-24T09:22:42.663Z,6.86
2019-02-24T09:25:12.110Z,6.98
2019-02-24T09:27:41.516Z,7.07
2019-02-24T09:30:14.226Z,7.16
2019-02-24T09:32:43.644Z,7.26
2019-02-24T09:35:13.098Z,7.40
2019-02-24T09:37:42.532Z,7.52
2019-02-24T09:40:12.864Z,7.60
2019-02-24T09:42:42.338Z,7.71
2019-02-24T09:45:13.046Z,7.85
2019-02-24T09:47:46.658Z,7.97
2019-02-24T09:50:13.636Z,8.11
2019-02-24T09:52:43.163Z,8.15
2019-02-24T09:55:12.645Z,8.21
2019-02-24T09:57:42.149Z,8.29
2019-02-24T10:00:13.668Z,8.42
2019-02-24T10:02:43.104Z,8.50
2019-02-24T10:05:12.682Z,8.59
2019-02-24T10:07:42.091Z,8.68
2019-02-24T10:10:13.372Z,8.71
2019-02-24T10:12:42.809Z,8.76
2019-02-24T10:15:16.261Z,8.86
2019-02-24T10:17:45.686Z,8.99
2019-02-24T10:20:15.239Z,9.03
2019-02-24T10:22:44.645Z,9.06
2019-02-24T10:25:14.119Z,9.11
2019-02-24T10:27:43.543Z,9.13
2019-02-24T10:30:14.865Z,9.21
2019-02-24T10:32:44.302Z,9.33
2019-02-24T10:35:13.731Z,9.48
2019-02-24T10:37:43.313Z,9.60
2019-02-24T10:40:16.713Z,9.72
2019-02-24T10:42:46.215Z,9.83
2019-02-24T10:45:19.713Z,9.92
2019-02-24T10:47:49.239Z,10.00
2019-02-24T10:50:18.742Z,10.10
2019-02-24T10:52:49.248Z,10.16
2019-02-24T10:55:18.767Z,10.25
2019-02-24T10:57:48.277Z,10.36
2019-02-24T11:00:20.582Z,10.45
2019-02-24T11:02:50.100Z,10.55
2019-02-24T11:05:19.631Z,10.61
2019-02-24T11:07:49.131Z,10.60
2019-02-24T11:10:18.641Z,10.67
2019-02-24T11:12:48.044Z,10.74
2019-02-24T11:15:17.473Z,10.81
2019-02-24T11:17:46.976Z,10.83
2019-02-24T11:20:18.323Z,10.91
2019-02-24T11:22:47.912Z,11.01
2019-02-24T11:25:18.286Z,11.10
2019-02-24T11:27:47.764Z,11.16
2019-02-24T11:30:17.167Z,11.13
2019-02-24T11:32:46.664Z,11.15
2019-02-24T11:35:16.198Z,11.21
2019-02-24T11:37:45.671Z,11.22
2019-02-24T11:40:17.784Z,11.27
2019-02-24T11:42:47.366Z,11.33
2019-02-24T11:45:16.853Z,11.40
2019-02-24T11:47:46.356Z,11.44
2019-02-24T11:50:15.863Z,11.53
2019-02-24T11:52:46.266Z,11.60
2019-02-24T11:55:15.765Z,11.66
2019-02-24T11:57:45.203Z,11.72
2019-02-24T12:00:17.904Z,11.71
2019-02-24T12:02:47.306Z,11.66
2019-02-24T12:05:16.822Z,11.67
2019-02-24T12:07:46.228Z,11.71
2019-02-24T12:10:15.832Z,11.76
2019-02-24T12:12:45.336Z,11.81
2019-02-24T12:15:15.385Z,11.87
2019-02-24T12:17:44.944Z,11.91
2019-02-24T12:20:15.157Z,11.97
2019-02-24T12:22:44.618Z,12.04
2019-02-24T12:25:14.108Z,12.03
2019-02-24T12:27:43.531Z,12.09
2019-02-24T12:30:14.486Z,12.13
2019-02-24T12:32:43.987Z,12.14
2019-02-24T12:35:13.495Z,12.15
2019-02-24T12:37:43.062Z,12.17
2019-02-24T12:40:14.029Z,12.21
2019-02-24T12:42:43.541Z,12.30
2019-02-24T12:45:13.196Z,12.38
2019-02-24T12:47:42.635Z,12.42
2019-02-24T12:50:18.734Z,12.47
2019-02-24T12:52:48.146Z,12.49
2019-02-24T12:55:17.717Z,12.52
2019-02-24T12:57:47.147Z,12.56
2019-02-24T13:00:27.933Z,12.58
2019-02-24T13:02:57.370Z,12.62
2019-02-24T13:05:28.647Z,12.66
2019-02-24T13:07:59.284Z,12.70
2019-02-24T13:10:31.314Z,12.73
2019-02-24T13:13:02.180Z,12.75
2019-02-24T13:15:31.743Z,12.79
2019-02-24T13:18:01.155Z,12.83
2019-02-24T13:20:30.716Z,12.86
2019-02-24T13:23:00.255Z,12.88
2019-02-24T13:25:29.821Z,12.89
2019-02-24T13:27:59.346Z,12.92
2019-02-24T13:30:28.848Z,12.98
2019-02-24T13:32:58.441Z,13.01
2019-02-24T13:35:28.092Z,13.04
2019-02-24T13:37:58.248Z,13.06
2019-02-24T13:40:27.771Z,13.09
2019-02-24T13:42:57.450Z,13.12
2019-02-24T13:45:27.038Z,13.14
2019-02-24T13:47:57.532Z,13.17
2019-02-24T13:50:27.196Z,13.18
2019-02-24T13:52:56.713Z,13.19
2019-02-24T13:55:26.298Z,13.21
2019-02-24T13:57:55.831Z,13.24
2019-02-24T14:00:25.825Z,13.27
2019-02-24T14:02:55.360Z,13.29
2019-02-24T14:05:24.877Z,13.32
2019-02-24T14:07:54.455Z,13.32
2019-02-24T14:10:23.855Z,13.35
2019-02-24T14:12:53.374Z,13.36
2019-02-24T14:15:22.854Z,13.40
2019-02-24T14:17:52.421Z,13.43
2019-02-24T14:20:22.011Z,13.45
2019-02-24T14:22:51.769Z,13.45
2019-02-24T14:25:21.295Z,13.47
2019-02-24T14:27:50.708Z,13.50
2019-02-24T14:30:20.114Z,13.53
2019-02-24T14:32:49.636Z,13.57
2019-02-24T14:35:23.562Z,13.58
2019-02-24T14:37:53.112Z,13.61
2019-02-24T14:40:22.838Z,13.62
2019-02-24T14:42:52.278Z,13.61
2019-02-24T14:45:23.886Z,13.61
2019-02-24T14:47:53.426Z,13.66
2019-02-24T14:50:23.087Z,13.64
2019-02-24T14:52:52.512Z,13.64
2019-02-24T14:55:22.130Z,13.63
2019-02-24T14:57:51.534Z,13.63
2019-02-24T15:00:24.819Z,13.64
2019-02-24T15:02:54.565Z,13.62
2019-02-24T15:05:24.200Z,13.61
2019-02-24T15:07:53.757Z,13.58
2019-02-24T15:10:24.665Z,13.53
2019-02-24T15:12:54.073Z,13.52
2019-02-24T15:15:32.902Z,13.52
2019-02-24T15:18:00.372Z,13.51
2019-02-24T15:20:29.812Z,13.45
2019-02-24T15:22:59.694Z,13.41
2019-02-24T15:25:29.094Z,13.36
2019-02-24T15:27:58.513Z,13.33
2019-02-24T15:30:33.428Z,13.30
2019-02-24T15:33:03.160Z,13.25
2019-02-24T15:35:32.575Z,13.22
2019-02-24T15:38:02.140Z,13.21
2019-02-24T15:40:31.575Z,13.15
2019-02-24T15:43:01.110Z,13.08
2019-02-24T15:45:30.535Z,13.03
2019-02-24T15:47:59.952Z,12.99
2019-02-24T15:50:29.572Z,12.94
2019-02-24T15:52:59.019Z,12.87
2019-02-24T15:55:28.502Z,12.80
2019-02-24T15:57:58.414Z,12.77
2019-02-24T16:00:28.026Z,12.75
2019-02-24T16:03:01.501Z,12.74
2019-02-24T16:05:28.851Z,12.77
2019-02-24T16:07:58.382Z,12.77
2019-02-24T16:10:27.911Z,12.78
2019-02-24T16:12:57.439Z,12.79
2019-02-24T16:15:28.943Z,12.78
2019-02-24T16:17:58.723Z,12.76
2019-02-24T16:20:36.282Z,12.73
2019-02-24T16:23:05.882Z,12.70
2019-02-24T16:25:35.354Z,12.65
2019-02-24T16:28:05.015Z,12.60
2019-02-24T16:30:34.488Z,12.53
2019-02-24T16:33:10.664Z,12.47
2019-02-24T16:35:35.950Z,12.43
2019-02-24T16:38:05.539Z,12.40
2019-02-24T16:40:35.090Z,12.37
2019-02-24T16:43:04.547Z,12.31
2019-02-24T16:45:34.225Z,12.29
2019-02-24T16:48:04.343Z,12.25
2019-02-24T16:50:33.936Z,12.17
2019-02-24T16:53:04.550Z,12.06
2019-02-24T16:55:34.116Z,11.97
2019-02-24T16:58:04.446Z,11.82
2019-02-24T17:00:34.069Z,11.64
2019-02-24T17:03:04.772Z,11.47
2019-02-24T17:05:34.308Z,11.33
2019-02-24T17:08:04.834Z,11.18
2019-02-24T17:10:34.367Z,11.02
2019-02-24T17:13:04.651Z,10.86
2019-02-24T17:15:34.060Z,10.71
2019-02-24T17:18:04.683Z,10.58
2019-02-24T17:20:34.281Z,10.44
2019-02-24T17:23:04.365Z,10.33
2019-02-24T17:25:34.076Z,10.24
2019-02-24T17:28:04.509Z,10.15
2019-02-24T17:30:34.313Z,10.07
2019-02-24T17:33:04.460Z,9.98
2019-02-24T17:35:34.073Z,9.89
2019-02-24T17:38:04.464Z,9.77
2019-02-24T17:40:34.071Z,9.66
2019-02-24T17:43:04.477Z,9.54
2019-02-24T17:45:34.129Z,9.48
2019-02-24T17:48:04.619Z,9.43
2019-02-24T17:50:34.185Z,9.39
2019-02-24T17:53:04.390Z,9.30
2019-02-24T17:55:33.988Z,9.26
2019-02-24T17:58:04.397Z,9.18
2019-02-24T18:00:35.870Z,9.13
2019-02-24T18:03:05.275Z,9.07
2019-02-24T18:05:34.834Z,9.02
2019-02-24T18:08:04.584Z,9.00
2019-02-24T18:10:33.987Z,8.96
2019-02-24T18:13:04.543Z,8.90
2019-02-24T18:15:34.079Z,8.84
2019-02-24T18:18:04.370Z,8.77
2019-02-24T18:20:34.063Z,8.72
2019-02-24T18:23:03.502Z,8.68
2019-02-24T18:25:33.147Z,8.60
2019-02-24T18:28:02.654Z,8.53
2019-02-24T18:30:32.350Z,8.47
2019-02-24T18:33:01.943Z,8.42
2019-02-24T18:35:31.571Z,8.36
2019-02-24T18:38:01.200Z,8.29
2019-02-24T18:40:30.610Z,8.25
2019-02-24T18:43:00.832Z,8.23
2019-02-24T18:45:30.552Z,8.22
2019-02-24T18:48:00.098Z,8.18
2019-02-24T18:50:29.675Z,8.12
2019-02-24T18:52:59.358Z,8.08
2019-02-24T18:55:28.853Z,8.06
2019-02-24T18:57:58.683Z,8.02
2019-02-24T19:00:28.323Z,8.00
2019-02-24T19:02:57.800Z,7.97
2019-02-24T19:05:27.361Z,7.92
2019-02-24T19:07:56.792Z,7.86
2019-02-24T19:10:26.229Z,7.83
2019-02-24T19:12:55.794Z,7.81
2019-02-24T19:15:25.812Z,7.83
2019-02-24T19:17:55.223Z,7.80
2019-02-24T19:20:25.395Z,7.76
2019-02-24T19:22:55.045Z,7.72
2019-02-24T19:25:24.579Z,7.67
2019-02-24T19:27:54.064Z,7.63
2019-02-24T19:30:23.964Z,7.57
2019-02-24T19:32:53.454Z,7.54
2019-02-24T19:35:23.187Z,7.46
2019-02-24T19:37:52.839Z,7.40
2019-02-24T19:40:22.595Z,7.35
2019-02-24T19:42:52.158Z,7.31
2019-02-24T19:45:24.766Z,7.25
2019-02-24T19:47:54.718Z,7.20
2019-02-24T19:50:24.721Z,7.14
2019-02-24T19:52:54.905Z,7.09
2019-02-24T19:55:24.370Z,7.05
2019-02-24T19:57:57.499Z,7.02
2019-02-24T20:00:27.795Z,7.01
2019-02-24T20:02:57.613Z,7.03
2019-02-24T20:05:27.518Z,7.04
2019-02-24T20:07:57.570Z,7.01
2019-02-24T20:10:28.628Z,6.97
2019-02-24T20:12:59.063Z,6.93
2019-02-24T20:15:29.202Z,6.92
2019-02-24T20:17:59.192Z,6.90
2019-02-24T20:20:28.937Z,6.86
2019-02-24T20:22:58.801Z,6.84
2019-02-24T20:25:28.596Z,6.79
2019-02-24T20:27:58.065Z,6.78
2019-02-24T20:30:29.579Z,6.72
2019-02-24T20:32:59.521Z,6.68
2019-02-24T20:35:29.208Z,6.64
2019-02-24T20:37:59.219Z,6.59
2019-02-24T20:40:28.900Z,6.55
2019-02-24T20:42:58.327Z,6.53
2019-02-24T20:45:29.410Z,6.51
2019-02-24T20:47:59.462Z,6.48
2019-02-24T20:50:31.258Z,6.45
2019-02-24T20:53:01.300Z,6.43
2019-02-24T20:55:30.902Z,6.40
2019-02-24T20:58:00.325Z,6.36
2019-02-24T21:00:35.704Z,6.34
2019-02-24T21:03:05.428Z,6.33
2019-02-24T21:05:35.461Z,6.30
2019-02-24T21:08:05.183Z,6.28
2019-02-24T21:10:34.840Z,6.23
2019-02-24T21:13:04.541Z,6.18
2019-02-24T21:15:34.495Z,6.15
2019-02-24T21:18:04.989Z,6.10
2019-02-24T21:20:35.126Z,6.06
2019-02-24T21:23:04.814Z,6.03
2019-02-24T21:25:34.285Z,6.00
2019-02-24T21:28:04.529Z,5.96
2019-02-24T21:30:34.011Z,5.95
2019-02-24T21:33:04.507Z,5.92
2019-02-24T21:35:34.093Z,5.92
2019-02-24T21:38:05.220Z,5.91
2019-02-24T21:40:34.928Z,5.89
2019-02-24T21:43:04.602Z,5.88
2019-02-24T21:45:34.988Z,5.87
2019-02-24T21:48:04.860Z,5.85
2019-02-24T21:50:34.418Z,5.84
2019-02-24T21:53:04.459Z,5.83
2019-02-24T21:55:33.984Z,5.80
2019-02-24T21:58:04.522Z,5.79
2019-02-24T22:00:33.932Z,5.80
2019-02-24T22:03:04.893Z,5.75
2019-02-24T22:05:34.432Z,5.68
2019-02-24T22:08:04.838Z,5.62
2019-02-24T22:10:34.334Z,5.58
2019-02-24T22:13:04.411Z,5.57
2019-02-24T22:15:33.880Z,5.55
2019-02-24T22:18:04.438Z,5.51
2019-02-24T22:20:33.870Z,5.47
2019-02-24T22:23:04.384Z,5.44
2019-02-24T22:25:33.787Z,5.40
2019-02-24T22:28:21.694Z,5.35
2019-02-24T22:30:51.358Z,5.27
2019-02-24T22:33:20.804Z,5.23
2019-02-24T22:35:50.906Z,5.21
2019-02-24T22:38:20.392Z,5.19
2019-02-24T22:40:54.402Z,5.16
2019-02-24T22:43:20.967Z,5.13
2019-02-24T22:45:50.463Z,5.10
2019-02-24T22:48:21.834Z,5.09
2019-02-24T22:50:51.319Z,5.05
2019-02-24T22:53:20.851Z,5.01
2019-02-24T22:55:50.270Z,4.99
2019-02-24T22:58:20.283Z,4.99
2019-02-24T23:00:53.881Z,4.98
2019-02-24T23:03:28.702Z,4.99
2019-02-24T23:05:58.943Z,5.00
2019-02-24T23:08:28.579Z,5.00
2019-02-24T23:10:58.015Z,4.99
2019-02-24T23:13:27.430Z,4.98
2019-02-24T23:15:56.954Z,4.97
2019-02-24T23:18:26.422Z,4.95
2019-02-24T23:20:56.070Z,4.93
2019-02-24T23:23:25.505Z,4.91
2019-02-24T23:25:54.942Z,4.92
2019-02-24T23:28:24.536Z,4.91
2019-02-24T23:30:54.031Z,4.90
2019-02-24T23:33:23.495Z,4.89
2019-02-24T23:35:53.061Z,4.87
2019-02-24T23:38:22.513Z,4.85
2019-02-24T23:40:51.947Z,4.83
2019-02-24T23:43:21.419Z,4.82
2019-02-24T23:45:50.843Z,4.78
2019-02-24T23:48:20.375Z,4.75
2019-02-24T23:50:49.775Z,4.73
2019-02-24T23:53:19.279Z,4.71
2019-02-24T23:55:48.816Z,4.70
2019-02-24T23:58:18.286Z,4.68
